createdAt,value
2023-04-08T09:16:12.657Z,100205.06
2023-04-08T09:18:51.527Z,100200.98
2023-04-08T09:21:27.141Z,100203.69
2023-04-08T09:23:59.634Z,100203.94
2023-04-08T09:26:39.219Z,100205.27
2023-04-08T09:29:24.156Z,100209.45
2023-04-08T09:43:40.751Z,100209.94
2023-04-08T09:46:14.838Z,100215.95
2023-04-08T09:49:27.454Z,100216.39
2023-04-08T09:52:19.333Z,100218.93
2023-04-08T09:54:59.669Z,100218.95
2023-04-08T09:57:47.047Z,100224.73
2023-04-08T10:00:17.735Z,100230.61
2023-04-08T10:03:15.457Z,100235.05
2023-04-08T10:05:46.493Z,100233.47
2023-04-08T10:08:17.584Z,100228.58
2023-04-08T10:10:47.956Z,100230.75
2023-04-08T10:13:23.609Z,100232.82
2023-04-08T10:16:24.845Z,100232.16
2023-04-08T10:18:58.917Z,100235.45
2023-04-08T10:21:40.342Z,100234.41
2023-04-08T10:24:12.039Z,100238.77
2023-04-08T10:26:45.456Z,100238.58
2023-04-08T10:29:39.462Z,100239.83
2023-04-08T10:32:08.586Z,100239.98
2023-04-08T10:34:37.567Z,100241.17
2023-04-08T10:37:07.854Z,100239.67
2023-04-08T10:39:40.159Z,100241.35
2023-04-08T10:42:12.495Z,100243.08
2023-04-08T10:44:44.952Z,100244.56
2023-04-08T10:47:18.764Z,100242.98
2023-04-08T10:49:48.777Z,100238.63
2023-04-08T10:52:17.215Z,100236.52
2023-04-08T10:54:48.824Z,100232.01
2023-04-08T10:57:24.819Z,100231.09
2023-04-08T10:59:54.168Z,100227.92
2023-04-08T11:02:23.669Z,100220.93
2023-04-08T11:04:54.866Z,100213.49
2023-04-08T11:07:27.579Z,100214.96
2023-04-08T11:09:57.273Z,100214.10
2023-04-08T11:12:32.750Z,100211.81
2023-04-08T11:15:08.099Z,100208.90
2023-04-08T11:17:38.126Z,100204.97
2023-04-08T11:20:13.741Z,100204.70
2023-04-08T11:22:42.879Z,100207.09
2023-04-08T11:25:12.098Z,100205.66
2023-04-08T11:27:44.432Z,100204.46
2023-04-08T11:30:14.008Z,100201.84
2023-04-08T11:32:45.406Z,100196.04
2023-04-08T11:35:13.863Z,100193.33
2023-04-08T11:37:43.471Z,100188.31
2023-04-08T11:40:20.929Z,100185.45
2023-04-08T11:42:53.601Z,100179.03
2023-04-08T11:45:23.546Z,100174.41
2023-04-08T11:47:53.241Z,100170.38
2023-04-08T11:50:31.211Z,100166.36
2023-04-08T11:53:01.130Z,100163.73
2023-04-08T11:55:30.514Z,100154.36
2023-04-08T11:58:06.416Z,100155.09
2023-04-08T12:00:37.695Z,100147.64
2023-04-08T12:03:12.939Z,100153.02
2023-04-08T12:05:45.869Z,100152.11
2023-04-08T12:08:14.458Z,100152.98
2023-04-08T12:10:44.978Z,100152.25
2023-04-08T12:13:17.972Z,100151.99
2023-04-08T12:15:48.386Z,100147.55
2023-04-08T12:18:17.262Z,100147.04
2023-04-08T12:20:46.498Z,100148.55
2023-04-08T12:23:20.057Z,100149.23
2023-04-08T12:25:49.690Z,100153.25
2023-04-08T12:28:21.456Z,100156.25
2023-04-08T12:30:51.192Z,100164.73
2023-04-08T12:33:22.419Z,100157.11
2023-04-08T12:35:52.666Z,100165.65
2023-04-08T12:38:21.776Z,100164.23
2023-04-08T12:40:50.339Z,100162.52
2023-04-08T12:43:24.054Z,100157.20
2023-04-08T12:45:55.087Z,100155.70
2023-04-08T12:48:26.822Z,100153.35
2023-04-08T12:50:58.989Z,100152.70
2023-04-08T12:53:28.590Z,100151.10
2023-04-08T12:55:59.545Z,100150.52
2023-04-08T12:58:37.161Z,100153.34
2023-04-08T13:01:07.854Z,100156.06
2023-04-08T13:03:46.957Z,100169.49
2023-04-08T13:06:18.226Z,100183.31
2023-04-08T13:08:55.627Z,100216.02
2023-04-08T13:11:29.491Z,100246.94
2023-04-08T13:13:59.809Z,100231.41
2023-04-08T13:16:31.903Z,100240.96
2023-04-08T13:19:05.747Z,100249.19
2023-04-08T13:21:36.094Z,100260.48
2023-04-08T13:24:05.431Z,100253.31
2023-04-08T13:26:34.503Z,100248.59
2023-04-08T13:29:05.051Z,100241.80
2023-04-08T13:31:34.707Z,100231.69
2023-04-08T13:34:07.320Z,100240.45
2023-04-08T13:36:43.220Z,100258.26
2023-04-08T13:39:13.917Z,100244.20
2023-04-08T13:41:44.072Z,100251.48
2023-04-08T13:44:12.747Z,100245.63
2023-04-08T13:46:43.956Z,100250.57
2023-04-08T13:49:14.076Z,100239.48
2023-04-08T13:51:42.847Z,100223.38
2023-04-08T13:54:17.980Z,100215.88
2023-04-08T13:56:47.075Z,100204.00
2023-04-08T13:59:16.925Z,100212.10
2023-04-08T14:01:45.447Z,100204.44
2023-04-08T14:04:14.796Z,100199.27
2023-04-08T14:06:43.988Z,100196.35
2023-04-08T14:09:13.387Z,100184.30
2023-04-08T14:11:42.760Z,100179.25
2023-04-08T14:14:11.484Z,100177.16
2023-04-08T14:16:39.945Z,100177.11
2023-04-08T14:19:08.551Z,100171.23
2023-04-08T14:21:38.363Z,100173.29
2023-04-08T14:24:07.430Z,100176.69
2023-04-08T14:26:39.313Z,100176.84
2023-04-08T14:29:09.902Z,100171.58
2023-04-08T14:31:41.155Z,100163.76
2023-04-08T14:34:09.882Z,100165.09
2023-04-08T14:36:40.403Z,100169.82
2023-04-08T14:39:15.051Z,100172.20
2023-04-08T14:42:03.269Z,100167.39
2023-04-08T14:44:36.505Z,100163.28
2023-04-08T14:47:07.536Z,100171.85
2023-04-08T14:49:36.087Z,100164.84
2023-04-08T14:52:08.055Z,100165.42
2023-04-08T14:54:37.764Z,100163.41
2023-04-08T14:57:09.354Z,100165.98
2023-04-08T14:59:44.459Z,100168.37
2023-04-08T15:02:13.639Z,100168.33
2023-04-08T15:04:44.952Z,100173.52
2023-04-08T15:07:14.952Z,100172.83
2023-04-08T15:09:46.405Z,100182.62
2023-04-08T15:12:16.143Z,100198.20
2023-04-08T15:14:46.858Z,100207.11
2023-04-08T15:17:17.386Z,100207.47
2023-04-08T15:19:51.153Z,100210.90
2023-04-08T15:22:21.865Z,100206.61
2023-04-08T15:24:53.471Z,100210.72
2023-04-08T15:27:27.480Z,100212.77
2023-04-08T15:29:59.679Z,100211.16
2023-04-08T15:32:29.685Z,100217.64
2023-04-08T15:34:59.220Z,100226.06
2023-04-08T15:37:32.961Z,100223.20
2023-04-08T15:40:02.898Z,100221.36
2023-04-08T15:42:31.746Z,100222.55
2023-04-08T15:45:02.053Z,100222.15
2023-04-08T15:47:38.188Z,100224.73
2023-04-08T15:50:08.863Z,100224.20
2023-04-08T15:52:38.055Z,100224.48
2023-04-08T15:55:08.045Z,100222.73
2023-04-08T15:57:37.774Z,100222.90
2023-04-08T16:00:12.240Z,100227.09
2023-04-08T16:02:42.655Z,100226.52
2023-04-08T16:05:13.508Z,100227.70
2023-04-08T16:07:44.080Z,100222.11
2023-04-08T16:10:14.935Z,100222.83
2023-04-08T16:12:43.385Z,100224.10
2023-04-08T16:15:14.484Z,100222.98
2023-04-08T16:17:43.457Z,100223.66
2023-04-08T16:20:12.552Z,100223.95
2023-04-08T16:22:50.640Z,100230.86
2023-04-08T16:25:19.280Z,100227.24
2023-04-08T16:27:48.846Z,100228.20
2023-04-08T16:30:17.779Z,100230.84
2023-04-08T16:32:47.822Z,100228.83
2023-04-08T16:35:19.085Z,100233.97
2023-04-08T16:37:51.357Z,100235.85
2023-04-08T16:40:27.417Z,100234.39
2023-04-08T16:42:56.928Z,100231.60
2023-04-08T16:45:26.070Z,100231.73
2023-04-08T16:47:56.737Z,100234.95
2023-04-08T16:50:34.286Z,100240.63
2023-04-08T16:53:04.721Z,100240.36
2023-04-08T16:55:36.332Z,100246.52
2023-04-08T16:58:06.365Z,100248.84
2023-04-08T17:00:37.037Z,100250.55
2023-04-08T17:03:12.663Z,100250.00
2023-04-08T17:05:45.899Z,100253.41
2023-04-08T17:08:24.334Z,100260.34
2023-04-08T17:10:55.050Z,100268.26
2023-04-08T17:13:26.057Z,100274.90
2023-04-08T17:15:59.217Z,100275.93
2023-04-08T17:18:30.066Z,100277.33
2023-04-08T17:21:03.850Z,100277.17
2023-04-08T17:23:39.363Z,100280.98
2023-04-08T17:26:13.009Z,100284.89
2023-04-08T17:28:43.621Z,100286.02
2023-04-08T17:31:15.088Z,100288.25
2023-04-08T17:33:52.259Z,100289.90
2023-04-08T17:36:21.995Z,100296.83
2023-04-08T17:38:51.270Z,100301.46
2023-04-08T17:41:38.132Z,100308.69
2023-04-08T17:44:11.884Z,100310.59
2023-04-08T17:46:46.558Z,100307.38
2023-04-08T17:49:15.359Z,100304.55
2023-04-08T17:51:47.243Z,100308.52
2023-04-08T17:54:18.212Z,100312.02
2023-04-08T17:56:49.057Z,100321.05
2023-04-08T17:59:18.346Z,100322.85
2023-04-08T18:01:47.963Z,100325.20
2023-04-08T18:04:22.123Z,100326.71
2023-04-08T18:06:53.204Z,100326.34
2023-04-08T18:09:36.335Z,100327.06
2023-04-08T18:12:09.928Z,100327.52
2023-04-08T18:14:39.370Z,100328.77
2023-04-08T18:17:10.489Z,100329.33
2023-04-08T18:19:44.081Z,100331.09
2023-04-08T18:22:12.795Z,100330.85
2023-04-08T18:24:42.957Z,100330.05
2023-04-08T18:27:11.682Z,100330.48
2023-04-08T18:29:41.803Z,100331.19
2023-04-08T18:32:11.014Z,100337.11
2023-04-08T18:34:43.168Z,100337.60
2023-04-08T18:37:13.390Z,100334.73
2023-04-08T18:39:41.954Z,100339.11
2023-04-08T18:42:12.084Z,100332.98
2023-04-08T18:44:41.738Z,100334.16
2023-04-08T18:47:11.386Z,100339.60
2023-04-08T18:49:41.096Z,100334.55
2023-04-08T18:52:09.793Z,100336.67
2023-04-08T18:54:49.104Z,100335.73
2023-04-08T18:57:22.961Z,100335.42
2023-04-08T18:59:51.771Z,100332.91
2023-04-08T19:02:20.890Z,100328.03
2023-04-08T19:04:50.531Z,100331.30
2023-04-08T19:07:22.469Z,100327.05
2023-04-08T19:10:01.256Z,100327.92
2023-04-08T19:12:31.974Z,100329.54
2023-04-08T19:15:00.736Z,100323.87
2023-04-08T19:17:32.357Z,100324.29
2023-04-08T19:20:08.736Z,100321.18
2023-04-08T19:22:39.783Z,100314.89
2023-04-08T19:25:08.981Z,100315.95
2023-04-08T19:27:40.653Z,100317.63
2023-04-08T19:30:10.481Z,100311.80
2023-04-08T19:32:44.491Z,100316.52
2023-04-08T19:35:15.695Z,100319.23
2023-04-08T19:37:49.506Z,100319.77
2023-04-08T19:40:19.659Z,100320.88
2023-04-08T19:42:50.173Z,100322.60
2023-04-08T19:45:19.808Z,100314.20
2023-04-08T19:47:50.102Z,100315.42
2023-04-08T19:50:22.504Z,100313.49
2023-04-08T19:52:51.369Z,100311.92
2023-04-08T19:55:25.754Z,100310.09
2023-04-08T19:57:56.215Z,100310.29
2023-04-08T20:00:29.737Z,100307.80
2023-04-08T20:03:01.988Z,100305.79
2023-04-08T20:05:31.480Z,100306.50
2023-04-08T20:08:03.160Z,100306.96
2023-04-08T20:10:36.500Z,100305.59
2023-04-08T20:13:04.956Z,100302.36
2023-04-08T20:15:33.482Z,100303.36
2023-04-08T20:18:05.156Z,100301.43
2023-04-08T20:20:35.681Z,100299.95
2023-04-08T20:23:05.805Z,100302.02
2023-04-08T20:25:35.931Z,100303.83
2023-04-08T20:28:05.016Z,100304.48
2023-04-08T20:30:37.181Z,100303.16
2023-04-08T20:33:07.004Z,100303.80
2023-04-08T20:35:36.150Z,100301.00
2023-04-08T20:38:06.609Z,100300.22
2023-04-08T20:40:54.711Z,100300.40
2023-04-08T20:43:27.348Z,100301.21
2023-04-08T20:46:01.350Z,100305.34
2023-04-08T20:48:36.701Z,100304.33
2023-04-08T20:51:06.918Z,100301.46
2023-04-08T20:53:41.597Z,100300.13
2023-04-08T20:56:11.520Z,100297.05
2023-04-08T20:58:43.921Z,100299.01
2023-04-08T21:01:14.429Z,100302.41
2023-04-08T21:03:43.729Z,100303.13
2023-04-08T21:06:20.623Z,100305.11
2023-04-08T21:08:50.169Z,100307.70
2023-04-08T21:11:19.530Z,100303.98
2023-04-08T21:13:49.620Z,100301.58
2023-04-08T21:16:19.857Z,100300.89
2023-04-08T21:18:48.456Z,100302.10
2023-04-08T21:21:18.556Z,100305.27
2023-04-08T21:23:47.310Z,100306.18
2023-04-08T21:26:15.724Z,100307.86
2023-04-08T21:28:47.861Z,100307.84
2023-04-08T21:31:19.627Z,100307.63
2023-04-08T21:33:51.308Z,100308.34
2023-04-08T21:36:22.508Z,100308.25
2023-04-08T21:38:52.407Z,100304.15
2023-04-08T21:41:25.228Z,100302.11
2023-04-08T21:43:53.932Z,100302.47
2023-04-08T21:46:24.612Z,100299.41
2023-04-08T21:48:54.269Z,100298.98
2023-04-08T21:51:23.370Z,100299.94
2023-04-08T21:53:52.703Z,100300.02
2023-04-08T21:56:22.369Z,100300.59
2023-04-08T21:58:51.856Z,100302.93
2023-04-08T22:01:22.819Z,100305.44
2023-04-08T22:03:54.246Z,100302.17
2023-04-08T22:06:31.523Z,100301.65
2023-04-08T22:09:02.049Z,100302.77
2023-04-08T22:11:34.848Z,100303.40
2023-04-08T22:14:03.571Z,100305.77
2023-04-08T22:16:34.141Z,100307.72
2023-04-08T22:19:02.850Z,100306.98
2023-04-08T22:21:34.486Z,100304.80
2023-04-08T22:24:06.614Z,100305.70
2023-04-08T22:26:34.975Z,100307.91
2023-04-08T22:29:07.908Z,100310.55
2023-04-08T22:31:37.806Z,100312.06
2023-04-08T22:34:07.571Z,100311.02
2023-04-08T22:36:37.327Z,100309.28
2023-04-08T22:39:06.662Z,100312.98
2023-04-08T22:41:35.804Z,100306.92
2023-04-08T22:44:04.856Z,100305.98
2023-04-08T22:46:36.964Z,100307.73
2023-04-08T22:49:06.498Z,100307.38
2023-04-08T22:51:37.257Z,100307.55
2023-04-08T22:54:06.875Z,100309.65
2023-04-08T22:56:36.280Z,100305.66
2023-04-08T22:59:05.580Z,100305.17
2023-04-08T23:01:34.382Z,100302.24
2023-04-08T23:04:05.719Z,100298.27
2023-04-08T23:06:38.570Z,100293.68
2023-04-08T23:09:09.978Z,100293.27
2023-04-08T23:11:38.675Z,100291.90
2023-04-08T23:14:14.448Z,100294.63
2023-04-08T23:16:46.898Z,100290.66
2023-04-08T23:19:17.399Z,100294.35
2023-04-08T23:21:46.584Z,100293.89
2023-04-08T23:24:16.263Z,100292.78
2023-04-08T23:26:44.988Z,100292.58
2023-04-08T23:29:15.935Z,100290.75
2023-04-08T23:31:45.206Z,100288.12
2023-04-08T23:34:14.073Z,100287.50
2023-04-08T23:36:46.932Z,100288.28
2023-04-08T23:39:16.877Z,100290.80
2023-04-08T23:41:45.354Z,100290.27
2023-04-08T23:44:14.371Z,100291.70
2023-04-08T23:46:46.238Z,100290.89
2023-04-08T23:49:16.125Z,100291.95
2023-04-08T23:51:47.871Z,100297.83
2023-04-08T23:54:20.531Z,100291.30
2023-04-08T23:56:56.276Z,100286.16
2023-04-08T23:59:29.103Z,100288.98
